createdAt,value
2019-05-12T00:00:42.842Z,18.78
2019-05-12T00:03:14.415Z,18.74
2019-05-12T00:05:48.223Z,18.83
2019-05-12T00:08:19.559Z,18.84
2019-05-12T00:10:51.302Z,18.83
2019-05-12T00:13:23.366Z,18.76
2019-05-12T00:15:58.322Z,18.75
2019-05-12T00:18:30.053Z,18.80
2019-05-12T00:21:02.304Z,18.75
2019-05-12T00:23:35.495Z,18.74
2019-05-12T00:26:07.946Z,18.79
2019-05-12T00:28:39.753Z,18.80
2019-05-12T00:31:10.489Z,18.77
2019-05-12T00:33:42.316Z,18.76
2019-05-12T00:36:14.585Z,18.81
2019-05-12T00:38:48.428Z,18.85
2019-05-12T00:41:19.748Z,18.85
2019-05-12T00:43:50.461Z,18.83
2019-05-12T00:46:22.605Z,18.87
2019-05-12T00:48:54.681Z,18.92
2019-05-12T00:51:28.621Z,18.93
2019-05-12T00:53:59.801Z,18.93
2019-05-12T00:56:31.754Z,18.88
2019-05-12T00:59:02.498Z,18.84
2019-05-12T01:01:34.332Z,18.86
2019-05-12T01:04:08.518Z,18.84
2019-05-12T01:06:39.378Z,18.72
2019-05-12T01:09:11.598Z,18.72
2019-05-12T01:11:43.306Z,18.75
2019-05-12T01:14:14.789Z,18.75
2019-05-12T01:16:48.493Z,18.76
2019-05-12T01:19:20.058Z,18.73
2019-05-12T01:21:51.782Z,18.79
2019-05-12T01:24:22.502Z,18.89
2019-05-12T01:26:54.309Z,18.84
2019-05-12T01:29:28.029Z,18.85
2019-05-12T01:32:18.502Z,18.67
2019-05-12T01:34:50.303Z,18.67
2019-05-12T01:37:25.068Z,18.77
2019-05-12T01:39:59.786Z,18.71
2019-05-12T01:42:30.774Z,18.70
2019-05-12T01:45:02.366Z,18.64
2019-05-12T01:47:34.062Z,18.66
2019-05-12T01:50:08.778Z,18.69
2019-05-12T01:52:39.741Z,18.69
2019-05-12T01:55:11.397Z,18.67
2019-05-12T01:57:43.289Z,18.69
2019-05-12T02:00:14.882Z,18.63
2019-05-12T02:02:48.122Z,18.64
2019-05-12T02:05:19.805Z,18.72
2019-05-12T02:07:58.330Z,18.71
2019-05-12T02:10:29.766Z,18.69
2019-05-12T02:13:00.449Z,18.66
2019-05-12T02:15:32.765Z,18.67
2019-05-12T02:18:03.502Z,18.64
2019-05-12T02:20:37.877Z,18.66
2019-05-12T02:23:09.333Z,18.73
2019-05-12T02:25:41.048Z,18.74
2019-05-12T02:28:12.772Z,18.74
2019-05-12T02:30:43.456Z,18.75
2019-05-12T02:33:16.033Z,18.73
2019-05-12T02:35:47.862Z,18.77
2019-05-12T02:38:19.371Z,18.79
2019-05-12T02:40:50.989Z,18.77
2019-05-12T02:43:24.450Z,18.78
2019-05-12T02:45:56.378Z,18.64
2019-05-12T02:48:28.058Z,18.64
2019-05-12T02:50:59.735Z,18.74
2019-05-12T02:53:30.486Z,18.78
2019-05-12T02:56:05.030Z,18.77
2019-05-12T02:58:36.301Z,18.66
2019-05-12T03:01:08.494Z,18.74
2019-05-12T03:03:40.768Z,18.73
2019-05-12T03:06:15.128Z,18.73
2019-05-12T03:08:45.704Z,18.67
2019-05-12T03:11:16.491Z,18.66
2019-05-12T03:13:48.310Z,18.66
2019-05-12T03:16:19.875Z,18.65
2019-05-12T03:18:55.127Z,18.69
2019-05-12T03:21:25.583Z,18.67
2019-05-12T03:23:57.306Z,18.67
2019-05-12T03:26:28.791Z,18.67
2019-05-12T03:29:00.783Z,18.75
2019-05-12T03:31:33.842Z,18.76
2019-05-12T03:36:51.055Z,18.72
2019-05-12T03:39:21.311Z,18.70
2019-05-12T03:41:54.643Z,18.63
2019-05-12T03:44:26.607Z,18.64
2019-05-12T03:46:58.050Z,18.66
2019-05-12T03:49:29.882Z,18.73
2019-05-12T03:52:04.737Z,18.66
2019-05-12T03:54:35.384Z,18.67
2019-05-12T03:57:07.082Z,18.64
2019-05-12T03:59:38.753Z,18.75
2019-05-12T04:02:09.385Z,18.72
2019-05-12T04:04:40.743Z,18.72
2019-05-12T04:07:11.431Z,18.67
2019-05-12T04:09:45.074Z,18.74
2019-05-12T04:12:16.741Z,18.65
2019-05-12T04:14:47.441Z,18.72
2019-05-12T04:17:19.027Z,18.71
2019-05-12T04:19:50.788Z,18.73
2019-05-12T04:22:24.892Z,18.68
2019-05-12T04:24:55.770Z,18.72
2019-05-12T04:27:26.502Z,18.74
2019-05-12T04:29:58.736Z,18.72
2019-05-12T04:32:29.444Z,18.69
2019-05-12T04:36:15.747Z,18.67
2019-05-12T04:38:46.444Z,18.67
2019-05-12T04:41:20.073Z,18.57
2019-05-12T04:43:51.409Z,18.64
2019-05-12T04:46:25.179Z,18.63
2019-05-12T04:48:56.978Z,18.69
2019-05-12T04:51:28.725Z,18.64
2019-05-12T04:54:00.581Z,18.61
2019-05-12T04:56:35.447Z,18.56
2019-05-12T04:59:05.758Z,18.47
2019-05-12T05:01:37.445Z,18.55
2019-05-12T05:04:09.036Z,18.63
2019-05-12T05:06:41.008Z,18.76
2019-05-12T05:09:14.439Z,19.12
2019-05-12T05:11:46.399Z,19.50
2019-05-12T05:14:18.057Z,19.50
2019-05-12T05:16:50.064Z,19.83
2019-05-12T05:19:21.778Z,20.01
2019-05-12T05:21:54.197Z,20.17
2019-05-12T05:24:26.357Z,20.26
2019-05-12T05:26:58.575Z,20.27
2019-05-12T05:29:30.366Z,20.30
2019-05-12T05:32:03.498Z,20.30
2019-05-12T05:34:35.755Z,20.24
2019-05-12T05:38:37.733Z,20.40
2019-05-12T05:41:10.537Z,20.31
2019-05-12T05:43:43.820Z,20.29
2019-05-12T05:46:15.298Z,20.29
2019-05-12T05:48:46.888Z,20.31
2019-05-12T05:51:18.613Z,20.37
2019-05-12T05:53:51.959Z,20.35
2019-05-12T05:56:38.464Z,20.35
2019-05-12T05:58:57.307Z,20.37
2019-05-12T06:01:28.806Z,20.33
2019-05-12T06:04:04.505Z,20.30
2019-05-12T06:06:34.304Z,20.20
2019-05-12T06:09:07.999Z,20.13
2019-05-12T06:11:39.717Z,20.10
2019-05-12T06:14:13.149Z,20.01
2019-05-12T06:16:43.746Z,19.96
2019-05-12T06:19:14.722Z,19.89
2019-05-12T06:21:45.481Z,19.80
2019-05-12T06:24:20.030Z,19.70
2019-05-12T06:26:57.811Z,19.66
2019-05-12T06:29:25.223Z,19.66
2019-05-12T06:32:00.142Z,19.67
2019-05-12T06:34:30.747Z,19.65
2019-05-12T06:37:05.178Z,19.59
2019-05-12T06:39:34.751Z,19.54
2019-05-12T06:42:12.232Z,19.66
2019-05-12T06:44:40.315Z,19.75
2019-05-12T06:47:14.192Z,19.73
2019-05-12T06:49:48.850Z,19.93
2019-05-12T06:52:20.053Z,19.93
2019-05-12T06:54:56.590Z,19.83
2019-05-12T06:57:28.772Z,19.76
2019-05-12T06:59:58.741Z,19.87
2019-05-12T07:02:30.287Z,19.77
2019-05-12T07:05:04.378Z,19.78
2019-05-12T07:07:42.094Z,19.71
2019-05-12T07:10:13.123Z,19.71
2019-05-12T07:12:57.656Z,19.66
2019-05-12T07:15:17.392Z,19.59
2019-05-12T07:17:55.788Z,19.59
2019-05-12T07:20:29.175Z,19.68
2019-05-12T07:23:03.522Z,19.72
2019-05-12T07:25:36.878Z,19.81
2019-05-12T07:28:08.762Z,19.78
2019-05-12T07:30:39.479Z,19.78
2019-05-12T07:33:11.306Z,19.72
2019-05-12T07:35:44.428Z,19.73
2019-05-12T07:38:20.937Z,19.77
2019-05-12T07:40:50.021Z,19.77
2019-05-12T07:43:24.131Z,19.74
2019-05-12T07:46:02.252Z,19.66
2019-05-12T07:48:29.770Z,19.66
2019-05-12T07:51:00.888Z,19.55
2019-05-12T07:53:33.861Z,19.52
2019-05-12T07:56:05.778Z,19.50
2019-05-12T07:58:40.954Z,19.59
2019-05-12T08:01:11.077Z,19.62
2019-05-12T08:03:43.635Z,19.62
2019-05-12T08:06:15.729Z,19.69
2019-05-12T08:08:50.520Z,19.86
2019-05-12T08:11:19.827Z,19.80
2019-05-12T08:13:54.177Z,19.81
2019-05-12T08:16:29.731Z,19.88
2019-05-12T08:18:58.698Z,19.85
2019-05-12T08:21:34.859Z,19.91
2019-05-12T08:24:03.768Z,19.98
2019-05-12T08:26:35.752Z,20.02
2019-05-12T08:29:10.409Z,20.03
2019-05-12T08:31:41.053Z,20.13
2019-05-12T08:34:13.648Z,20.13
2019-05-12T08:36:53.100Z,20.10
2019-05-12T08:39:22.825Z,20.05
2019-05-12T08:41:53.566Z,20.00
2019-05-12T08:44:33.898Z,19.87
2019-05-12T08:46:58.774Z,19.87
2019-05-12T08:49:35.858Z,20.02
2019-05-12T08:52:03.831Z,20.02
2019-05-12T08:54:39.554Z,19.97
2019-05-12T08:57:09.307Z,20.03
2019-05-12T09:02:25.247Z,20.03
2019-05-12T09:04:56.888Z,19.97
2019-05-12T09:07:30.367Z,20.03
2019-05-12T09:10:03.995Z,20.01
2019-05-12T09:12:35.297Z,20.11
2019-05-12T09:15:08.426Z,20.04
2019-05-12T09:17:49.078Z,19.98
2019-05-12T09:20:14.302Z,19.98
2019-05-12T09:22:45.847Z,19.96
2019-05-12T09:25:18.016Z,20.01
2019-05-12T09:27:50.302Z,20.00
2019-05-12T09:30:33.365Z,20.02
2019-05-12T09:33:04.717Z,20.05
2019-05-12T09:35:39.222Z,20.05
2019-05-12T09:38:11.478Z,20.04
2019-05-12T09:40:43.766Z,20.04
2019-05-12T09:43:15.741Z,20.06
2019-05-12T09:45:51.534Z,20.06
2019-05-12T09:48:20.306Z,20.04
2019-05-12T09:51:00.255Z,20.05
2019-05-12T09:53:25.383Z,19.89
2019-05-12T09:55:58.602Z,19.89
2019-05-12T09:58:30.630Z,19.96
2019-05-12T10:01:03.622Z,19.97
2019-05-12T10:03:38.389Z,19.97
2019-05-12T10:06:11.495Z,19.95
2019-05-12T10:08:43.443Z,19.96
2019-05-12T10:11:19.349Z,19.89
2019-05-12T10:13:49.367Z,19.88
2019-05-12T10:16:21.306Z,19.88
2019-05-12T10:18:52.891Z,19.92
2019-05-12T10:21:24.953Z,19.91
2019-05-12T10:24:00.443Z,19.86
2019-05-12T10:26:30.310Z,19.89
2019-05-12T10:29:14.133Z,19.80
2019-05-12T10:31:39.085Z,19.77
2019-05-12T10:34:23.564Z,19.77
2019-05-12T10:36:54.760Z,19.86
2019-05-12T10:39:27.309Z,19.81
2019-05-12T10:41:58.903Z,19.79
2019-05-12T10:44:39.269Z,19.75
2019-05-12T10:47:06.321Z,19.75
2019-05-12T10:49:38.309Z,19.77
2019-05-12T10:52:09.863Z,19.79
2019-05-12T10:54:43.457Z,19.77
2019-05-12T10:57:15.582Z,19.77
2019-05-12T10:59:48.608Z,19.80
2019-05-12T11:02:26.578Z,19.80
2019-05-12T11:04:54.316Z,19.79
2019-05-12T11:07:27.964Z,19.79
2019-05-12T11:10:05.195Z,19.78
2019-05-12T11:12:33.321Z,19.78
2019-05-12T11:15:06.650Z,19.72
2019-05-12T11:17:57.362Z,19.82
2019-05-12T11:20:29.058Z,19.77
2019-05-12T11:23:03.268Z,19.75
2019-05-12T11:25:34.717Z,19.71
2019-05-12T11:28:05.493Z,19.71
2019-05-12T11:30:37.301Z,19.74
2019-05-12T11:33:09.682Z,19.75
2019-05-12T11:35:43.347Z,19.67
2019-05-12T11:38:14.768Z,19.67
2019-05-12T11:40:45.669Z,19.74
2019-05-12T11:43:16.484Z,19.73
2019-05-12T11:45:48.310Z,19.75
2019-05-12T11:48:20.014Z,19.77
2019-05-12T11:50:51.718Z,19.77
2019-05-12T11:53:30.489Z,19.80
2019-05-12T11:55:56.064Z,19.75
2019-05-12T11:58:27.790Z,19.79
2019-05-12T12:01:04.712Z,19.78
2019-05-12T12:03:34.805Z,19.86
2019-05-12T12:06:06.758Z,19.73
2019-05-12T12:08:37.515Z,19.60
2019-05-12T12:11:10.442Z,19.78
2019-05-12T12:13:42.782Z,19.78
2019-05-12T12:20:25.298Z,19.97
2019-05-12T12:23:00.183Z,19.98
2019-05-12T12:25:34.026Z,19.93
2019-05-12T12:28:05.773Z,19.72
2019-05-12T12:30:36.445Z,19.72
2019-05-12T12:33:08.294Z,19.87
2019-05-12T12:35:39.819Z,20.30
2019-05-12T12:38:13.930Z,20.60
2019-05-12T12:40:45.057Z,20.80
2019-05-12T12:43:16.725Z,20.90
2019-05-12T12:46:18.224Z,21.01
2019-05-12T12:48:45.304Z,21.11
2019-05-12T12:51:17.599Z,21.24
2019-05-12T12:53:49.605Z,21.25
2019-05-12T12:56:27.734Z,21.27
2019-05-12T12:58:55.572Z,21.27
2019-05-12T13:01:30.868Z,21.22
2019-05-12T13:04:04.682Z,21.30
2019-05-12T13:06:34.753Z,21.30
2019-05-12T13:09:18.285Z,21.20
2019-05-12T13:11:41.737Z,21.17
2019-05-12T13:14:13.513Z,21.06
2019-05-12T13:16:49.445Z,20.98
2019-05-12T13:19:18.994Z,20.95
2019-05-12T13:21:53.081Z,20.93
2019-05-12T13:24:24.294Z,20.90
2019-05-12T13:29:38.610Z,20.95
2019-05-12T13:32:06.865Z,20.95
2019-05-12T13:34:38.777Z,20.91
2019-05-12T13:37:14.753Z,20.86
2019-05-12T13:39:55.493Z,20.83
2019-05-12T13:42:16.734Z,20.83
2019-05-12T13:44:47.645Z,20.84
2019-05-12T13:47:19.363Z,20.81
2019-05-12T13:49:51.109Z,20.81
2019-05-12T13:52:26.293Z,20.76
2019-05-12T13:55:00.079Z,20.76
2019-05-12T13:57:29.763Z,20.69
2019-05-12T14:00:06.790Z,20.65
2019-05-12T14:02:35.363Z,20.60
2019-05-12T14:05:11.673Z,20.44
2019-05-12T14:07:40.692Z,20.40
2019-05-12T14:10:13.744Z,20.48
2019-05-12T14:13:41.371Z,20.52
2019-05-12T14:16:13.054Z,20.52
2019-05-12T14:18:44.767Z,20.52
2019-05-12T14:21:15.750Z,20.64
2019-05-12T14:23:47.549Z,20.65
2019-05-12T14:26:19.298Z,20.59
2019-05-12T14:28:50.850Z,20.48
2019-05-12T14:31:29.320Z,20.48
2019-05-12T14:33:56.383Z,20.48
2019-05-12T14:36:28.010Z,20.44
2019-05-12T14:39:00.215Z,20.46
2019-05-12T14:41:34.193Z,20.39
2019-05-12T14:44:05.837Z,20.16
2019-05-12T14:46:40.126Z,20.24
2019-05-12T14:49:10.799Z,20.67
2019-05-12T14:51:44.287Z,20.87
2019-05-12T14:54:15.793Z,20.92
2019-05-12T14:56:53.679Z,20.94
2019-05-12T14:59:21.308Z,20.94
2019-05-12T15:01:59.054Z,20.93
2019-05-12T15:04:29.877Z,20.90
2019-05-12T15:07:04.916Z,20.89
2019-05-12T15:09:34.059Z,20.83
2019-05-12T15:12:05.816Z,20.75
2019-05-12T15:14:38.229Z,20.68
2019-05-12T15:17:13.732Z,20.76
2019-05-12T15:19:44.127Z,20.71
2019-05-12T15:22:15.992Z,20.62
2019-05-12T15:24:49.323Z,20.57
2019-05-12T15:27:37.891Z,20.55
2019-05-12T15:29:56.384Z,20.52
2019-05-12T15:32:28.375Z,20.54
2019-05-12T15:35:00.306Z,20.49
2019-05-12T15:37:35.017Z,20.41
2019-05-12T15:40:06.019Z,20.33
2019-05-12T15:42:37.750Z,20.38
2019-05-12T15:45:12.568Z,20.35
2019-05-12T15:47:44.308Z,20.53
2019-05-12T15:50:15.540Z,20.58
2019-05-12T15:52:47.302Z,20.52
2019-05-12T15:55:24.204Z,20.60
2019-05-12T15:57:52.318Z,20.57
2019-05-12T16:00:24.773Z,20.59
2019-05-12T16:02:56.682Z,20.60
2019-05-12T16:05:30.973Z,20.39
2019-05-12T16:08:03.632Z,20.39
2019-05-12T16:10:35.300Z,20.41
2019-05-12T16:13:07.001Z,20.41
2019-05-12T16:15:38.758Z,20.47
2019-05-12T16:18:10.647Z,20.47
2019-05-12T16:20:44.146Z,20.34
2019-05-12T16:23:28.015Z,20.34
2019-05-12T16:25:48.671Z,20.40
2019-05-12T16:28:23.700Z,20.42
2019-05-12T16:30:53.877Z,20.47
2019-05-12T16:33:27.303Z,20.50
2019-05-12T16:36:04.913Z,20.41
2019-05-12T16:38:33.305Z,20.43
2019-05-12T16:41:04.832Z,20.41
2019-05-12T16:43:36.765Z,20.42
2019-05-12T16:46:08.782Z,20.44
2019-05-12T16:48:42.103Z,20.43
2019-05-12T16:51:13.821Z,20.38
2019-05-12T16:53:45.787Z,20.36
2019-05-12T16:56:19.895Z,20.38
2019-05-12T16:58:50.065Z,20.30
2019-05-12T17:01:25.999Z,20.28
2019-05-12T17:03:55.546Z,20.10
2019-05-12T17:06:28.831Z,19.91
2019-05-12T17:09:03.179Z,19.91
2019-05-12T17:11:37.275Z,20.05
2019-05-12T17:14:07.749Z,20.10
2019-05-12T17:16:42.076Z,20.11
2019-05-12T17:19:11.760Z,20.16
2019-05-12T17:21:44.124Z,20.06
2019-05-12T17:24:15.838Z,20.04
2019-05-12T17:26:47.574Z,20.05
2019-05-12T17:29:19.329Z,20.11
2019-05-12T17:31:50.898Z,20.11
2019-05-12T17:34:23.495Z,20.11
2019-05-12T17:37:00.039Z,20.21
2019-05-12T17:39:34.454Z,20.25
2019-05-12T17:42:03.057Z,20.39
2019-05-12T17:44:36.816Z,20.41
2019-05-12T17:47:15.295Z,20.41
2019-05-12T17:49:43.585Z,20.49
2019-05-12T17:52:18.381Z,20.42
2019-05-12T17:54:49.308Z,20.41
2019-05-12T17:57:20.890Z,20.40
2019-05-12T17:59:54.518Z,20.37
2019-05-12T18:02:26.058Z,20.38
2019-05-12T18:05:01.253Z,20.35
2019-05-12T18:07:31.317Z,20.32
2019-05-12T18:10:04.217Z,20.35
2019-05-12T18:12:44.066Z,20.41
2019-05-12T18:15:09.754Z,20.33
2019-05-12T18:17:45.351Z,20.32
2019-05-12T18:20:14.609Z,20.25
2019-05-12T18:22:47.146Z,20.23
2019-05-12T18:25:21.972Z,20.22
2019-05-12T18:27:54.224Z,20.19
2019-05-12T18:30:25.775Z,20.19
2019-05-12T18:33:04.335Z,20.24
2019-05-12T18:35:30.302Z,20.24
2019-05-12T18:38:07.134Z,20.24
2019-05-12T18:40:34.456Z,20.26
2019-05-12T18:43:06.259Z,20.20
2019-05-12T18:45:38.627Z,20.15
2019-05-12T18:48:17.862Z,20.13
2019-05-12T18:50:44.242Z,20.13
2019-05-12T18:53:27.642Z,20.11
2019-05-12T18:55:49.631Z,19.88
2019-05-12T18:58:30.150Z,20.37
2019-05-12T19:00:55.617Z,20.37
2019-05-12T19:03:26.464Z,20.54
2019-05-12T19:05:58.319Z,20.63
2019-05-12T19:08:30.000Z,20.61
2019-05-12T19:11:17.985Z,20.58
2019-05-12T19:13:35.314Z,20.53
2019-05-12T19:16:07.504Z,20.53
2019-05-12T19:18:39.806Z,20.50
2019-05-12T19:21:16.709Z,20.46
2019-05-12T19:23:45.345Z,20.44
2019-05-12T19:26:17.072Z,20.41
2019-05-12T19:28:52.982Z,20.36
2019-05-12T19:31:21.614Z,20.31
2019-05-12T19:34:14.398Z,20.26
2019-05-12T19:36:26.753Z,20.20
2019-05-12T19:38:57.484Z,20.15
2019-05-12T19:41:30.878Z,20.11
2019-05-12T19:44:04.045Z,20.05
2019-05-12T19:46:39.750Z,19.99
2019-05-12T19:49:09.623Z,19.96
2019-05-12T19:51:43.670Z,19.87
2019-05-12T19:54:19.414Z,19.87
2019-05-12T19:56:48.269Z,20.11
2019-05-12T19:59:19.870Z,20.24
2019-05-12T20:01:53.485Z,20.27
2019-05-12T20:04:33.225Z,20.15
2019-05-12T20:06:58.399Z,20.11
2019-05-12T20:09:30.067Z,20.15
2019-05-12T20:12:08.378Z,20.10
2019-05-12T20:14:35.272Z,20.05
2019-05-12T20:17:06.847Z,20.02
2019-05-12T20:19:38.786Z,19.95
2019-05-12T20:22:09.460Z,19.97
2019-05-12T20:24:41.270Z,19.95
2019-05-12T20:27:17.065Z,19.88
2019-05-12T20:29:46.500Z,19.76
2019-05-12T20:32:18.072Z,19.76
2019-05-12T20:34:52.973Z,19.78
2019-05-12T20:37:23.300Z,19.81
2019-05-12T20:40:02.052Z,19.83
2019-05-12T20:42:33.926Z,19.76
2019-05-12T20:45:05.293Z,19.68
2019-05-12T20:47:39.103Z,19.70
2019-05-12T20:50:11.385Z,19.70
2019-05-12T20:52:46.343Z,19.66
2019-05-12T20:55:16.502Z,19.62
2019-05-12T20:57:52.618Z,19.64
2019-05-12T21:00:24.167Z,19.63
2019-05-12T21:02:55.313Z,19.57
2019-05-12T21:05:27.320Z,19.58
2019-05-12T21:08:03.339Z,19.62
2019-05-12T21:10:34.143Z,19.58
2019-05-12T21:13:06.315Z,19.55
2019-05-12T21:15:42.659Z,19.54
2019-05-12T21:18:11.398Z,19.46
2019-05-12T21:20:46.475Z,19.46
2019-05-12T21:23:16.822Z,19.58
2019-05-12T21:25:52.321Z,19.51
2019-05-12T21:28:23.827Z,19.61
2019-05-12T21:30:55.813Z,19.49
2019-05-12T21:33:31.314Z,19.49
2019-05-12T21:36:03.495Z,19.49
2019-05-12T21:38:34.795Z,19.42
2019-05-12T21:41:07.944Z,19.41
2019-05-12T21:43:38.791Z,19.38
2019-05-12T21:46:12.613Z,19.40
2019-05-12T21:48:44.061Z,19.40
2019-05-12T21:51:19.906Z,19.37
2019-05-12T21:53:50.671Z,19.37
2019-05-12T21:56:24.441Z,19.39
2019-05-12T21:58:58.236Z,19.29
2019-05-12T22:01:35.173Z,19.24
2019-05-12T22:04:05.366Z,19.24
2019-05-12T22:06:37.379Z,19.17
2019-05-12T22:09:10.333Z,19.17
2019-05-12T22:11:50.510Z,19.21
2019-05-12T22:14:15.318Z,19.17
2019-05-12T22:16:49.328Z,19.17
2019-05-12T22:19:21.074Z,19.18
2019-05-12T22:21:53.699Z,19.19
2019-05-12T22:24:33.823Z,19.17
2019-05-12T22:27:01.778Z,19.22
2019-05-12T22:29:34.272Z,19.23
2019-05-12T22:32:06.313Z,19.19
2019-05-12T22:34:42.050Z,19.18
2019-05-12T22:37:13.524Z,19.08
2019-05-12T22:39:44.993Z,19.08
2019-05-12T22:42:21.500Z,19.11
2019-05-12T22:44:55.318Z,19.13
2019-05-12T22:47:24.147Z,19.10
2019-05-12T22:49:57.163Z,19.08
2019-05-12T22:52:29.064Z,19.12
2019-05-12T22:55:03.025Z,19.14
2019-05-12T22:57:39.939Z,19.14
2019-05-12T23:00:13.444Z,19.05
2019-05-12T23:02:44.515Z,19.07
2019-05-12T23:05:20.388Z,19.08
2019-05-12T23:07:49.309Z,19.07
2019-05-12T23:10:20.829Z,19.07
2019-05-12T23:12:57.150Z,19.05
2019-05-12T23:15:26.910Z,19.01
2019-05-12T23:17:58.775Z,19.04
2019-05-12T23:20:30.970Z,18.97
2019-05-12T23:23:04.040Z,18.93
2019-05-12T23:25:36.762Z,18.97
2019-05-12T23:28:10.411Z,18.92
2019-05-12T23:30:43.695Z,18.96
2019-05-12T23:33:14.304Z,19.00
2019-05-12T23:35:46.310Z,19.04
2019-05-12T23:38:20.896Z,19.02
2019-05-12T23:40:53.609Z,18.96
2019-05-12T23:43:25.073Z,18.96
2019-05-12T23:45:57.312Z,18.89
2019-05-12T23:48:28.853Z,18.91
2019-05-12T23:51:00.784Z,18.99
2019-05-12T23:53:33.840Z,18.95
2019-05-12T23:56:05.844Z,18.87
2019-05-12T23:58:37.611Z,18.96
